createdAt,value
2023-02-21T00:00:33.212Z,8.6
2023-02-21T00:01:34.178Z,8.6
2023-02-21T00:02:35.194Z,8.6
2023-02-21T00:03:36.189Z,8.6
2023-02-21T00:04:37.414Z,8.5
2023-02-21T00:05:39.309Z,8.6
2023-02-21T00:06:40.255Z,8.6
2023-02-21T00:07:41.204Z,8.7
2023-02-21T00:08:42.255Z,8.7
2023-02-21T00:09:43.216Z,8.6
2023-02-21T00:10:44.288Z,8.6
2023-02-21T00:11:45.294Z,8.6
2023-02-21T00:12:46.238Z,8.6
2023-02-21T00:13:47.246Z,8.6
2023-02-21T00:14:48.219Z,8.6
2023-02-21T00:15:49.199Z,8.6
2023-02-21T00:16:50.297Z,8.6
2023-02-21T00:17:51.218Z,8.5
2023-02-21T00:18:52.220Z,8.5
2023-02-21T00:19:53.233Z,8.5
2023-02-21T00:20:54.555Z,8.5
2023-02-21T00:21:56.260Z,8.5
2023-02-21T00:22:57.215Z,8.5
2023-02-21T00:23:58.256Z,8.6
2023-02-21T00:24:59.244Z,8.6
2023-02-21T00:26:00.260Z,8.6
2023-02-21T00:27:01.896Z,8.6
2023-02-21T00:28:04.655Z,8.6
2023-02-21T00:29:08.277Z,8.6
2023-02-21T00:30:09.342Z,8.6
2023-02-21T00:31:10.271Z,8.5
2023-02-21T00:32:11.401Z,8.5
2023-02-21T00:33:12.346Z,8.4
2023-02-21T00:34:13.256Z,8.5
2023-02-21T00:35:14.253Z,8.5
2023-02-21T00:36:15.223Z,8.5
2023-02-21T00:37:16.192Z,8.6
2023-02-21T00:38:17.232Z,8.5
2023-02-21T00:39:18.245Z,8.3
2023-02-21T00:40:19.146Z,8.3
2023-02-21T00:41:20.197Z,8.3
2023-02-21T00:42:21.212Z,8.4
2023-02-21T00:43:22.213Z,8.6
2023-02-21T00:44:23.292Z,8.7
2023-02-21T00:45:24.332Z,8.5
2023-02-21T00:46:25.360Z,8.4
2023-02-21T00:47:26.252Z,8.4
2023-02-21T00:48:27.212Z,8.5
2023-02-21T00:49:28.371Z,8.4
2023-02-21T00:50:29.311Z,8.5
2023-02-21T00:51:30.362Z,8.5
2023-02-21T00:52:32.670Z,8.5
2023-02-21T00:53:35.209Z,8.5
2023-02-21T00:54:36.291Z,8.4
2023-02-21T00:55:38.569Z,8.5
2023-02-21T00:56:40.308Z,8.5
2023-02-21T00:57:41.215Z,8.4
2023-02-21T00:58:42.207Z,8.3
2023-02-21T00:59:43.192Z,8.3
2023-02-21T01:00:44.244Z,8.3
2023-02-21T01:01:45.277Z,8.4
2023-02-21T01:02:46.250Z,8.4
2023-02-21T01:03:47.258Z,8.4
2023-02-21T01:04:48.236Z,8.5
2023-02-21T01:05:49.327Z,8.5
2023-02-21T01:06:50.214Z,8.3
2023-02-21T01:07:51.193Z,8.3
2023-02-21T01:08:52.215Z,8.3
2023-02-21T01:09:53.263Z,8.3
2023-02-21T01:10:54.262Z,8.4
2023-02-21T01:11:55.238Z,8.5
2023-02-21T01:12:56.226Z,8.4
2023-02-21T01:13:57.236Z,8.3
2023-02-21T01:14:58.255Z,8.3
2023-02-21T01:15:59.274Z,8.4
2023-02-21T01:17:11.520Z,8.3
2023-02-21T01:18:01.287Z,8.3
2023-02-21T01:19:02.256Z,8.3
2023-02-21T01:20:03.176Z,8.2
2023-02-21T01:21:04.300Z,8
2023-02-21T01:22:05.257Z,7.9
2023-02-21T01:23:06.256Z,8
2023-02-21T01:24:07.259Z,8
2023-02-21T01:25:08.300Z,8.1
2023-02-21T01:26:09.260Z,8.1
2023-02-21T01:27:10.294Z,8.2
2023-02-21T01:28:11.218Z,8
2023-02-21T01:29:12.300Z,8
2023-02-21T01:30:13.308Z,8.1
2023-02-21T01:31:14.516Z,7.9
2023-02-21T01:32:15.297Z,7.9
2023-02-21T01:33:16.248Z,8
2023-02-21T01:34:18.258Z,8
2023-02-21T01:35:20.942Z,7.8
2023-02-21T01:36:23.257Z,7.8
2023-02-21T01:37:24.275Z,7.8
2023-02-21T01:38:25.276Z,7.9
2023-02-21T01:39:26.251Z,7.7
2023-02-21T01:40:27.246Z,7.8
2023-02-21T01:41:28.196Z,7.9
2023-02-21T01:42:29.504Z,8
2023-02-21T01:43:30.256Z,8.1
2023-02-21T01:44:31.297Z,8.1
2023-02-21T01:45:32.218Z,8.1
2023-02-21T01:46:33.268Z,8.1
2023-02-21T01:47:34.237Z,8.1
2023-02-21T01:48:35.320Z,8
2023-02-21T01:49:36.297Z,8
2023-02-21T01:50:37.257Z,8
2023-02-21T01:51:38.260Z,8
2023-02-21T01:52:39.226Z,7.9
2023-02-21T01:53:40.256Z,7.9
2023-02-21T01:54:41.271Z,7.9
2023-02-21T01:55:42.257Z,7.9
2023-02-21T01:56:43.286Z,7.9
2023-02-21T01:57:44.279Z,7.8
2023-02-21T01:58:45.298Z,7.7
2023-02-21T01:59:46.296Z,7.7
2023-02-21T02:00:47.259Z,7.7
2023-02-21T02:01:48.243Z,7.6
2023-02-21T02:02:49.278Z,7.6
2023-02-21T02:06:59.321Z,7.5
2023-02-21T02:08:00.284Z,7.5
2023-02-21T02:09:01.261Z,7.5
2023-02-21T02:10:02.262Z,7.4
2023-02-21T02:11:03.284Z,7.5
2023-02-21T02:12:04.245Z,7.5
2023-02-21T02:13:05.286Z,7.6
2023-02-21T02:14:06.258Z,7.6
2023-02-21T02:15:07.268Z,7.5
2023-02-21T02:16:08.303Z,7.5
2023-02-21T02:17:09.266Z,7.4
2023-02-21T02:18:10.270Z,7.5
2023-02-21T02:19:11.293Z,7.6
2023-02-21T02:20:12.298Z,7.6
2023-02-21T02:21:13.651Z,7.7
2023-02-21T02:22:14.244Z,7.7
2023-02-21T02:23:15.368Z,7.7
2023-02-21T02:24:16.261Z,7.5
2023-02-21T02:25:17.285Z,7.4
2023-02-21T02:26:18.255Z,7.3
2023-02-21T02:27:19.305Z,7.3
2023-02-21T02:28:20.288Z,7.3
2023-02-21T02:29:21.220Z,7.3
2023-02-21T02:30:23.295Z,7.4
2023-02-21T02:31:24.357Z,7.5
2023-02-21T02:32:25.263Z,7.5
2023-02-21T02:33:26.261Z,7.5
2023-02-21T02:34:27.262Z,7.3
2023-02-21T02:35:28.224Z,7.3
2023-02-21T02:36:29.463Z,7.3
2023-02-21T02:37:30.289Z,7.3
2023-02-21T02:38:32.290Z,7.4
2023-02-21T02:39:33.301Z,7.5
2023-02-21T02:40:34.272Z,7.6
2023-02-21T02:41:35.321Z,7.6
2023-02-21T02:42:36.269Z,7.7
2023-02-21T02:43:37.306Z,7.7
2023-02-21T02:44:38.304Z,7.7
2023-02-21T02:45:39.340Z,7.7
2023-02-21T02:46:40.336Z,7.7
2023-02-21T02:47:41.280Z,7.6
2023-02-21T02:48:42.320Z,7.6
2023-02-21T02:49:43.304Z,7.7
2023-02-21T02:50:44.266Z,7.8
2023-02-21T02:51:45.283Z,7.8
2023-02-21T02:52:46.263Z,7.8
2023-02-21T02:53:47.294Z,7.8
2023-02-21T02:54:49.248Z,7.7
2023-02-21T02:55:53.397Z,7.6
2023-02-21T02:56:55.258Z,7.5
2023-02-21T02:57:57.157Z,7.4
2023-02-21T02:59:00.981Z,7.4
2023-02-21T03:00:03.337Z,7.5
2023-02-21T03:01:04.319Z,7.6
2023-02-21T03:02:07.365Z,7.6
2023-02-21T03:03:12.058Z,7.7
2023-02-21T03:04:15.674Z,7.7
2023-02-21T03:05:18.810Z,7.6
2023-02-21T03:06:21.713Z,7.5
2023-02-21T03:07:24.987Z,7.4
2023-02-21T03:08:28.060Z,7.4
2023-02-21T03:09:32.182Z,7.5
2023-02-21T03:10:35.120Z,7.5
2023-02-21T03:11:37.896Z,7.4
2023-02-21T03:12:41.292Z,7.5
2023-02-21T03:13:45.077Z,7.7
2023-02-21T03:14:49.452Z,7.8
2023-02-21T03:15:52.709Z,7.8
2023-02-21T03:16:59.660Z,7.8
2023-02-21T03:18:04.039Z,7.7
2023-02-21T03:19:08.614Z,7.7
2023-02-21T03:20:12.457Z,7.7
2023-02-21T03:21:16.104Z,7.5
2023-02-21T03:22:19.752Z,7.6
2023-02-21T03:23:24.601Z,7.6
2023-02-21T03:24:30.060Z,7.5
2023-02-21T03:25:35.716Z,7.5
2023-02-21T03:26:40.928Z,7.6
2023-02-21T03:27:46.246Z,7.6
2023-02-21T03:28:48.338Z,7.5
2023-02-21T03:29:49.331Z,7.6
2023-02-21T03:30:50.286Z,7.6
2023-02-21T03:31:52.394Z,7.6
2023-02-21T03:32:55.346Z,7.6
2023-02-21T03:33:56.529Z,7.5
2023-02-21T03:34:57.306Z,7.5
2023-02-21T03:35:58.285Z,7.5
2023-02-21T03:36:59.296Z,7.3
2023-02-21T03:38:00.300Z,7.3
2023-02-21T03:39:01.316Z,7.3
2023-02-21T03:40:02.299Z,7.3
2023-02-21T03:41:03.324Z,7.5
2023-02-21T03:42:05.061Z,7.5
2023-02-21T03:43:08.820Z,7.6
2023-02-21T03:44:11.409Z,7.8
2023-02-21T03:45:13.104Z,7.9
2023-02-21T03:46:15.366Z,7.8
2023-02-21T03:47:16.378Z,7.7
2023-02-21T03:48:30.104Z,7.7
2023-02-21T03:49:23.176Z,7.8
2023-02-21T03:50:27.776Z,7.7
2023-02-21T03:51:31.469Z,7.9
2023-02-21T03:52:33.997Z,7.9
2023-02-21T03:53:38.819Z,7.9
2023-02-21T03:54:42.246Z,7.9
2023-02-21T03:55:45.937Z,8
2023-02-21T03:56:51.024Z,8
2023-02-21T03:57:54.321Z,8
2023-02-21T03:58:55.389Z,8
2023-02-21T03:59:56.340Z,7.9
2023-02-21T04:00:57.876Z,7.9
2023-02-21T04:02:01.057Z,7.8
2023-02-21T04:03:04.848Z,7.9
2023-02-21T04:04:07.341Z,7.7
2023-02-21T04:05:08.504Z,7.8
2023-02-21T04:06:10.363Z,7.8
2023-02-21T04:07:12.387Z,7.7
2023-02-21T04:08:15.393Z,7.7
2023-02-21T04:09:16.351Z,7.8
2023-02-21T04:10:17.414Z,7.7
2023-02-21T04:11:18.280Z,7.7
2023-02-21T04:12:19.363Z,7.8
2023-02-21T04:13:20.395Z,7.9
2023-02-21T04:14:21.344Z,7.8
2023-02-21T04:15:22.344Z,7.6
2023-02-21T04:16:23.354Z,7.6
2023-02-21T04:17:24.392Z,7.6
2023-02-21T04:18:25.362Z,7.6
2023-02-21T04:19:26.371Z,7.7
2023-02-21T04:20:27.361Z,7.8
2023-02-21T04:21:28.302Z,7.8
2023-02-21T04:22:29.541Z,7.7
2023-02-21T04:23:30.329Z,7.8
2023-02-21T04:24:31.341Z,7.8
2023-02-21T04:25:32.312Z,7.8
2023-02-21T04:26:33.321Z,7.8
2023-02-21T04:27:34.583Z,7.9
2023-02-21T04:28:36.363Z,7.9
2023-02-21T04:29:37.495Z,7.9
2023-02-21T04:30:38.369Z,8
2023-02-21T04:31:39.409Z,8.1
2023-02-21T04:32:41.346Z,8.2
2023-02-21T04:33:43.300Z,8.2
2023-02-21T04:34:44.351Z,8.1
2023-02-21T04:35:45.342Z,8.1
2023-02-21T04:36:46.320Z,8
2023-02-21T04:37:47.366Z,7.7
2023-02-21T04:38:48.323Z,7.7
2023-02-21T04:39:49.362Z,7.7
2023-02-21T04:40:50.525Z,7.7
2023-02-21T04:41:52.344Z,7.7
2023-02-21T04:42:53.304Z,7.8
2023-02-21T04:43:54.285Z,7.9
2023-02-21T04:45:00.200Z,7.9
2023-02-21T04:45:56.380Z,8
2023-02-21T04:46:57.344Z,8
2023-02-21T04:47:58.377Z,8.1
2023-02-21T04:48:59.334Z,8.2
2023-02-21T04:50:00.404Z,8.2
2023-02-21T04:51:16.121Z,8.2
2023-02-21T04:52:02.379Z,8.1
2023-02-21T04:53:03.363Z,8.1
2023-02-21T04:54:04.343Z,8.1
2023-02-21T04:55:05.621Z,8.1
2023-02-21T04:56:07.348Z,8.1
2023-02-21T04:57:08.364Z,8
2023-02-21T04:58:09.323Z,8.1
2023-02-21T04:59:10.405Z,8.1
2023-02-21T05:00:11.366Z,8.1
2023-02-21T05:01:14.282Z,8.1
2023-02-21T05:02:17.322Z,8.2
2023-02-21T05:03:18.455Z,8.3
2023-02-21T05:04:19.431Z,8.3
2023-02-21T05:05:20.394Z,8.2
2023-02-21T05:06:21.411Z,8.2
2023-02-21T05:07:22.390Z,8.1
2023-02-21T05:08:25.970Z,8
2023-02-21T05:09:24.401Z,7.9
2023-02-21T05:10:28.963Z,7.8
2023-02-21T05:11:26.376Z,7.8
2023-02-21T05:12:27.371Z,7.8
2023-02-21T05:13:28.326Z,7.9
2023-02-21T05:14:29.726Z,8
2023-02-21T05:15:31.361Z,7.9
2023-02-21T05:16:32.408Z,7.8
2023-02-21T05:17:34.349Z,7.7
2023-02-21T05:18:35.549Z,7.7
2023-02-21T05:19:36.374Z,7.7
2023-02-21T05:20:37.301Z,7.7
2023-02-21T05:21:38.382Z,7.7
2023-02-21T05:22:39.401Z,7.8
2023-02-21T05:23:41.008Z,7.8
2023-02-21T05:24:41.382Z,7.9
2023-02-21T05:25:42.349Z,8
2023-02-21T05:26:43.380Z,8.1
2023-02-21T05:27:44.386Z,8.1
2023-02-21T05:28:45.340Z,8
2023-02-21T05:29:46.384Z,8
2023-02-21T05:30:47.514Z,8.1
2023-02-21T05:31:48.459Z,8.1
2023-02-21T05:32:49.382Z,8.2
2023-02-21T05:33:50.488Z,8.3
2023-02-21T05:34:51.445Z,8.3
2023-02-21T05:35:52.401Z,8.3
2023-02-21T05:36:53.362Z,8.3
2023-02-21T05:37:54.368Z,8.3
2023-02-21T05:38:55.544Z,8.3
2023-02-21T05:39:56.367Z,8.2
2023-02-21T05:40:57.410Z,8.2
2023-02-21T05:41:58.402Z,8.1
2023-02-21T05:42:59.403Z,8
2023-02-21T05:44:00.379Z,8
2023-02-21T05:45:01.383Z,8.1
2023-02-21T05:46:02.632Z,8
2023-02-21T05:47:03.444Z,8
2023-02-21T05:48:04.369Z,8
2023-02-21T05:49:05.390Z,8
2023-02-21T05:50:06.423Z,8.1
2023-02-21T05:51:08.488Z,8.1
2023-02-21T05:52:13.282Z,8.1
2023-02-21T05:53:16.383Z,8.2
2023-02-21T05:54:17.390Z,8.3
2023-02-21T05:55:18.401Z,8.4
2023-02-21T05:56:19.394Z,8.5
2023-02-21T05:57:20.344Z,8.5
2023-02-21T05:58:21.384Z,8.4
2023-02-21T05:59:22.795Z,8.5
2023-02-21T06:00:26.393Z,8.4
2023-02-21T06:01:27.395Z,8.4
2023-02-21T06:02:28.511Z,8.4
2023-02-21T06:03:30.387Z,8.4
2023-02-21T06:04:35.086Z,8.3
2023-02-21T06:05:39.177Z,8.2
2023-02-21T06:06:42.935Z,8.1
2023-02-21T06:07:46.059Z,8.2
2023-02-21T06:08:48.363Z,8.2
2023-02-21T06:09:49.710Z,8.2
2023-02-21T06:10:51.455Z,8.2
2023-02-21T06:11:54.236Z,8.2
2023-02-21T06:12:57.895Z,8.1
2023-02-21T06:14:01.143Z,8.2
2023-02-21T06:15:05.481Z,8.2
2023-02-21T06:16:08.889Z,8.3
2023-02-21T06:17:12.110Z,8.3
2023-02-21T06:18:15.543Z,8.4
2023-02-21T06:19:19.015Z,8.3
2023-02-21T06:20:22.971Z,8.3
2023-02-21T06:21:28.193Z,8.3
2023-02-21T06:22:30.874Z,8.1
2023-02-21T06:23:33.754Z,8.1
2023-02-21T06:24:39.095Z,8.2
2023-02-21T06:25:42.031Z,8.2
2023-02-21T06:26:45.033Z,8.1
2023-02-21T06:27:48.776Z,8.1
2023-02-21T06:28:52.161Z,8
2023-02-21T06:29:55.000Z,8
2023-02-21T06:30:57.392Z,8
2023-02-21T06:31:59.595Z,7.7
2023-02-21T06:33:02.926Z,7.7
2023-02-21T06:34:06.619Z,7.7
2023-02-21T06:35:09.000Z,7.7
2023-02-21T06:36:11.694Z,7.8
2023-02-21T06:37:15.659Z,7.9
2023-02-21T06:38:19.019Z,8
2023-02-21T06:39:23.456Z,8
2023-02-21T06:40:26.648Z,8
2023-02-21T06:41:28.519Z,8.1
2023-02-21T06:42:31.361Z,8
2023-02-21T06:43:33.820Z,7.9
2023-02-21T06:44:36.935Z,7.9
2023-02-21T06:45:40.724Z,7.9
2023-02-21T06:46:42.824Z,8
2023-02-21T06:47:45.894Z,8
2023-02-21T06:48:47.952Z,8.1
2023-02-21T06:49:50.764Z,8.1
2023-02-21T06:50:52.863Z,8
2023-02-21T06:51:56.120Z,8.1
2023-02-21T06:52:58.144Z,8.1
2023-02-21T06:54:02.612Z,7.9
2023-02-21T06:55:04.739Z,7.9
2023-02-21T06:56:06.795Z,7.9
2023-02-21T06:57:11.488Z,7.9
2023-02-21T06:58:13.686Z,8
2023-02-21T06:59:16.172Z,7.9
2023-02-21T07:00:19.706Z,7.8
2023-02-21T07:01:23.510Z,7.9
2023-02-21T07:02:26.674Z,8
2023-02-21T07:03:29.863Z,8.1
2023-02-21T07:04:33.733Z,7.9
2023-02-21T07:05:36.801Z,7.9
2023-02-21T07:06:39.426Z,7.9
2023-02-21T07:07:41.945Z,7.9
2023-02-21T07:08:45.404Z,7.9
2023-02-21T07:09:48.583Z,7.9
2023-02-21T07:10:52.689Z,7.9
2023-02-21T07:11:57.142Z,8
2023-02-21T07:12:58.753Z,8.1
2023-02-21T07:14:03.110Z,8.2
2023-02-21T07:15:07.430Z,8.1
2023-02-21T07:16:11.907Z,8.1
2023-02-21T07:17:15.050Z,8.2
2023-02-21T07:18:18.263Z,8.2
2023-02-21T07:19:21.685Z,8.1
2023-02-21T07:20:24.906Z,8.3
2023-02-21T07:21:29.426Z,8.4
2023-02-21T07:22:30.680Z,8.3
2023-02-21T07:23:33.232Z,8.1
2023-02-21T07:24:37.179Z,8.1
2023-02-21T07:25:40.980Z,8.2
2023-02-21T07:26:46.079Z,8.4
2023-02-21T07:27:49.140Z,8.4
2023-02-21T07:28:53.466Z,8.4
2023-02-21T07:29:55.808Z,8.3
2023-02-21T07:30:58.812Z,8.2
2023-02-21T07:32:03.677Z,8
2023-02-21T07:33:06.866Z,8
2023-02-21T07:34:11.388Z,8.1
2023-02-21T07:35:15.525Z,8.2
2023-02-21T07:36:19.557Z,8.1
2023-02-21T07:37:22.843Z,8.2
2023-02-21T07:38:26.917Z,8.3
2023-02-21T07:39:31.486Z,8.2
2023-02-21T07:40:34.451Z,8.2
2023-02-21T07:41:35.422Z,8
2023-02-21T07:42:36.467Z,7.9
2023-02-21T07:43:38.258Z,7.7
2023-02-21T07:44:41.142Z,7.7
2023-02-21T07:45:44.868Z,7.8
2023-02-21T07:46:47.410Z,7.9
2023-02-21T07:47:48.573Z,7.9
2023-02-21T07:48:52.541Z,7.8
2023-02-21T07:49:55.984Z,7.9
2023-02-21T07:50:59.641Z,7.9
2023-02-21T07:52:04.060Z,8.1
2023-02-21T07:53:06.533Z,8.3
2023-02-21T07:54:08.889Z,8.4
2023-02-21T07:55:15.025Z,8.4
2023-02-21T07:56:19.514Z,8.4
2023-02-21T07:57:23.514Z,8.3
2023-02-21T07:58:25.269Z,8.2
2023-02-21T07:59:29.899Z,8.1
2023-02-21T08:00:32.482Z,8.1
2023-02-21T08:01:34.984Z,8
2023-02-21T08:02:38.089Z,7.9
2023-02-21T08:03:41.462Z,7.9
2023-02-21T08:04:46.061Z,7.8
2023-02-21T08:05:54.526Z,7.8
2023-02-21T08:07:01.620Z,7.8
2023-02-21T08:08:07.050Z,7.8
2023-02-21T08:09:11.443Z,7.8
2023-02-21T08:10:12.689Z,7.8
2023-02-21T08:11:13.813Z,7.9
2023-02-21T08:12:16.172Z,7.9
2023-02-21T08:13:19.427Z,8
2023-02-21T08:14:20.461Z,8.2
2023-02-21T08:15:22.285Z,8.3
2023-02-21T08:16:26.402Z,8.4
2023-02-21T08:17:32.657Z,8.3
2023-02-21T08:18:39.537Z,8.4
2023-02-21T08:19:42.342Z,8.4
2023-02-21T08:20:46.059Z,8.3
2023-02-21T08:21:47.777Z,8.4
2023-02-21T08:22:50.506Z,8.4
2023-02-21T08:23:52.398Z,8.5
2023-02-21T08:24:54.441Z,8.3
2023-02-21T08:25:55.965Z,8.2
2023-02-21T08:26:58.503Z,8
2023-02-21T08:28:01.355Z,7.9
2023-02-21T08:29:04.216Z,7.9
2023-02-21T08:30:06.895Z,7.9
2023-02-21T08:31:10.133Z,7.9
2023-02-21T08:32:12.458Z,7.8
2023-02-21T08:33:14.340Z,7.9
2023-02-21T08:34:18.677Z,8
2023-02-21T08:35:22.514Z,7.8
2023-02-21T08:36:26.069Z,7.9
2023-02-21T08:37:28.134Z,7.9
2023-02-21T08:38:31.275Z,7.9
2023-02-21T08:39:34.820Z,7.9
2023-02-21T08:40:37.621Z,7.9
2023-02-21T08:41:41.840Z,7.9
2023-02-21T08:42:45.451Z,7.9
2023-02-21T08:43:46.740Z,8
2023-02-21T08:44:48.816Z,8.1
2023-02-21T08:45:52.536Z,8.2
2023-02-21T08:46:55.391Z,8.4
2023-02-21T08:47:59.568Z,8.4
2023-02-21T08:49:02.486Z,8.3
2023-02-21T08:50:05.293Z,8.2
2023-02-21T08:51:09.684Z,8.3
2023-02-21T08:52:15.154Z,8.2
2023-02-21T08:53:18.169Z,8.2
2023-02-21T08:54:20.585Z,8.2
2023-02-21T08:55:22.978Z,8.1
2023-02-21T08:56:25.878Z,8.2
2023-02-21T08:57:29.277Z,8.1
2023-02-21T08:58:33.325Z,8.2
2023-02-21T08:59:39.176Z,8.3
2023-02-21T09:00:44.251Z,8.2
2023-02-21T09:01:47.611Z,8.1
2023-02-21T09:02:50.226Z,8.2
2023-02-21T09:03:53.399Z,8.3
2023-02-21T09:04:57.361Z,8.3
2023-02-21T09:05:59.974Z,8.3
2023-02-21T09:07:02.478Z,8.3
2023-02-21T09:08:04.724Z,8.4
2023-02-21T09:09:07.465Z,8.4
2023-02-21T09:10:08.561Z,8.2
2023-02-21T09:11:10.262Z,8.2
2023-02-21T09:12:11.466Z,8.2
2023-02-21T09:13:12.782Z,8.2
2023-02-21T09:14:14.482Z,8.2
2023-02-21T09:15:15.519Z,8.3
2023-02-21T09:16:17.989Z,8.2
2023-02-21T09:17:21.841Z,8.3
2023-02-21T09:18:25.405Z,8.4
2023-02-21T09:19:26.497Z,8.4
2023-02-21T09:20:27.430Z,8.3
2023-02-21T09:21:28.420Z,8.3
2023-02-21T09:22:29.459Z,8.3
2023-02-21T09:23:32.220Z,8.3
2023-02-21T09:24:35.462Z,8.3
2023-02-21T09:25:36.488Z,8.3
2023-02-21T09:26:37.440Z,8.2
2023-02-21T09:27:38.935Z,8.3
2023-02-21T09:28:41.460Z,8.4
2023-02-21T09:29:46.152Z,8.5
2023-02-21T09:30:45.789Z,8.6
2023-02-21T09:31:50.495Z,8.6
2023-02-21T09:32:52.073Z,8.7
2023-02-21T09:33:55.449Z,8.8
2023-02-21T09:35:04.707Z,8.9
2023-02-21T09:36:10.244Z,8.9
2023-02-21T09:37:14.345Z,8.9
2023-02-21T09:38:17.136Z,8.7
2023-02-21T09:39:19.879Z,8.7
2023-02-21T09:40:23.131Z,8.7
2023-02-21T09:41:26.841Z,8.5
2023-02-21T09:42:31.146Z,8.5
2023-02-21T09:43:35.884Z,8.6
2023-02-21T09:44:39.101Z,8.6
2023-02-21T09:45:41.189Z,8.8
2023-02-21T09:46:42.819Z,8.9
2023-02-21T09:47:45.989Z,9
2023-02-21T09:48:47.542Z,9
2023-02-21T09:49:49.162Z,9.1
2023-02-21T09:50:52.756Z,9.2
2023-02-21T09:51:55.787Z,9.4
2023-02-21T09:52:59.591Z,9.3
2023-02-21T09:54:02.562Z,9.3
2023-02-21T09:55:04.287Z,9.2
2023-02-21T09:56:07.206Z,9.3
2023-02-21T09:57:13.263Z,9.4
2023-02-21T09:58:15.109Z,9.4
2023-02-21T09:59:17.805Z,9.4
2023-02-21T10:00:19.862Z,9.6
2023-02-21T10:01:24.138Z,9.7
2023-02-21T10:02:28.701Z,9.9
2023-02-21T10:03:32.019Z,10
2023-02-21T10:04:35.707Z,10.3
2023-02-21T10:05:42.522Z,10.5
2023-02-21T10:06:45.135Z,10.6
2023-02-21T10:07:48.558Z,10.7
2023-02-21T10:08:51.296Z,10.9
2023-02-21T10:09:54.263Z,10.9
2023-02-21T10:10:57.783Z,10.9
2023-02-21T10:12:00.480Z,10.7
2023-02-21T10:13:02.512Z,10.5
2023-02-21T10:14:05.558Z,10.4
2023-02-21T10:15:07.437Z,10.4
2023-02-21T10:16:11.653Z,10.4
2023-02-21T10:17:15.840Z,10.3
2023-02-21T10:18:19.536Z,10.3
2023-02-21T10:19:20.608Z,10.3
2023-02-21T10:20:22.519Z,10.2
2023-02-21T10:21:24.017Z,10.2
2023-02-21T10:22:26.525Z,10.4
2023-02-21T10:23:27.839Z,10.4
2023-02-21T10:24:32.147Z,10.5
2023-02-21T10:25:34.513Z,10.2
2023-02-21T10:26:35.795Z,9.9
2023-02-21T10:27:38.066Z,9.8
2023-02-21T10:28:43.860Z,9.8
2023-02-21T10:29:46.526Z,9.8
2023-02-21T10:30:48.000Z,9.7
2023-02-21T10:31:51.574Z,9.6
2023-02-21T10:32:53.148Z,9.5
2023-02-21T10:33:58.516Z,9.6
2023-02-21T10:35:02.516Z,9.5
2023-02-21T10:36:06.281Z,9.4
2023-02-21T10:37:09.130Z,9.3
2023-02-21T10:38:14.236Z,9.3
2023-02-21T10:39:18.811Z,9.4
2023-02-21T10:40:22.018Z,9.4
2023-02-21T10:41:24.472Z,9.4
2023-02-21T10:42:27.317Z,9.3
2023-02-21T10:43:29.559Z,9.3
2023-02-21T10:44:31.698Z,9.4
2023-02-21T10:45:34.535Z,9.4
2023-02-21T10:46:35.558Z,9.4
2023-02-21T10:47:36.522Z,9.2
2023-02-21T10:48:37.607Z,9
2023-02-21T10:49:40.183Z,8.8
2023-02-21T10:50:43.483Z,8.7
2023-02-21T10:51:44.514Z,8.6
2023-02-21T10:52:47.807Z,8.5
2023-02-21T10:53:50.516Z,8.5
2023-02-21T10:54:51.744Z,8.5
2023-02-21T10:55:53.543Z,8.5
2023-02-21T10:56:54.587Z,8.7
2023-02-21T10:57:56.341Z,8.8
2023-02-21T10:58:58.935Z,8.8
2023-02-21T11:00:02.548Z,8.7
2023-02-21T11:01:07.773Z,8.8
2023-02-21T11:02:11.270Z,8.6
2023-02-21T11:03:15.739Z,8.5
2023-02-21T11:04:18.546Z,8.5
2023-02-21T11:05:19.780Z,8.6
2023-02-21T11:06:22.504Z,8.6
2023-02-21T11:07:23.504Z,8.5
2023-02-21T11:08:24.557Z,8.5
2023-02-21T11:09:25.655Z,8.6
2023-02-21T11:10:27.970Z,8.6
2023-02-21T11:11:35.032Z,8.6
2023-02-21T11:12:36.595Z,8.7
2023-02-21T11:13:43.106Z,8.7
2023-02-21T11:14:46.080Z,8.8
2023-02-21T11:15:47.499Z,8.8
2023-02-21T11:16:48.877Z,8.9
2023-02-21T11:18:05.778Z,8.8
2023-02-21T11:19:07.558Z,8.9
2023-02-21T11:20:08.604Z,8.9
2023-02-21T11:21:09.532Z,9.1
2023-02-21T11:22:11.518Z,9
2023-02-21T11:23:14.588Z,9
2023-02-21T11:24:15.536Z,9.1
2023-02-21T11:25:16.538Z,9.1
2023-02-21T11:26:18.576Z,9.4
2023-02-21T11:27:20.608Z,9.5
2023-02-21T11:28:21.915Z,9.6
2023-02-21T11:29:25.612Z,9.6
2023-02-21T11:30:28.610Z,9.7
2023-02-21T11:31:29.876Z,9.9
2023-02-21T11:32:30.897Z,9.8
2023-02-21T11:33:34.447Z,9.7
2023-02-21T11:34:38.017Z,9.8
2023-02-21T11:35:41.541Z,10
2023-02-21T11:36:44.911Z,9.9
2023-02-21T11:37:46.816Z,9.8
2023-02-21T11:38:48.841Z,9.6
2023-02-21T11:39:52.149Z,9.4
2023-02-21T11:40:59.361Z,9.3
2023-02-21T11:42:03.445Z,9.1
2023-02-21T11:43:09.342Z,9.1
2023-02-21T11:44:14.550Z,9
2023-02-21T11:45:15.649Z,9
2023-02-21T11:46:16.577Z,9
2023-02-21T11:47:18.500Z,9.1
2023-02-21T11:48:20.547Z,9.1
2023-02-21T11:49:21.940Z,9.1
2023-02-21T11:50:24.785Z,9
2023-02-21T11:51:26.567Z,8.9
2023-02-21T11:52:27.971Z,9
2023-02-21T11:53:30.338Z,8.8
2023-02-21T11:54:32.380Z,8.8
2023-02-21T11:55:37.120Z,8.7
2023-02-21T11:56:39.982Z,8.8
2023-02-21T11:57:43.399Z,8.9
2023-02-21T11:58:47.558Z,9
2023-02-21T11:59:48.543Z,9.1
2023-02-21T12:00:49.659Z,9.2
2023-02-21T12:01:51.205Z,9.3
2023-02-21T12:02:54.997Z,9.3
2023-02-21T12:03:58.278Z,9.3
2023-02-21T12:05:03.014Z,9.4
2023-02-21T12:06:06.758Z,9.4
2023-02-21T12:07:07.890Z,9.4
2023-02-21T12:08:11.217Z,9.2
2023-02-21T12:09:14.177Z,9.1
2023-02-21T12:10:17.217Z,9.1
2023-02-21T12:11:21.157Z,8.9
2023-02-21T12:12:31.966Z,8.8
2023-02-21T12:13:39.335Z,9
2023-02-21T12:14:43.516Z,9
2023-02-21T12:15:46.487Z,9.1
2023-02-21T12:16:49.595Z,9.1
2023-02-21T12:17:51.497Z,9.1
2023-02-21T12:18:55.944Z,9.1
2023-02-21T12:19:57.735Z,9.1
2023-02-21T12:21:01.158Z,9.3
2023-02-21T12:22:05.536Z,9.3
2023-02-21T12:23:08.719Z,9.3
2023-02-21T12:24:10.136Z,9.3
2023-02-21T12:25:12.224Z,9.4
2023-02-21T12:26:14.652Z,9.5
2023-02-21T12:27:16.380Z,9.5
2023-02-21T12:28:19.216Z,9.4
2023-02-21T12:29:21.277Z,9.4
2023-02-21T12:30:23.235Z,9.4
2023-02-21T12:31:25.712Z,9.3
2023-02-21T12:32:27.178Z,9.2
2023-02-21T12:33:29.564Z,9.1
2023-02-21T12:34:31.880Z,9
2023-02-21T12:35:34.855Z,9
2023-02-21T12:36:36.828Z,9.1
2023-02-21T12:37:39.310Z,9.1
2023-02-21T12:38:42.143Z,9.2
2023-02-21T12:39:44.984Z,9.3
2023-02-21T12:40:48.058Z,9.3
2023-02-21T12:41:50.982Z,9.3
2023-02-21T12:42:52.571Z,9.4
2023-02-21T12:43:54.204Z,9.4
2023-02-21T12:44:57.647Z,9.3
2023-02-21T12:46:00.182Z,9.4
2023-02-21T12:47:04.493Z,9.5
2023-02-21T12:48:07.465Z,9.6
2023-02-21T12:49:10.283Z,9.7
2023-02-21T12:50:12.582Z,9.8
2023-02-21T12:51:14.354Z,9.8
2023-02-21T12:52:17.859Z,9.6
2023-02-21T12:53:19.725Z,9.7
2023-02-21T12:54:23.490Z,9.6
2023-02-21T12:55:26.674Z,9.6
2023-02-21T12:56:29.067Z,9.4
2023-02-21T12:57:31.333Z,9.5
2023-02-21T12:58:33.740Z,9.6
2023-02-21T12:59:36.587Z,9.6
2023-02-21T13:00:39.607Z,9.6
2023-02-21T13:01:40.662Z,9.6
2023-02-21T13:02:42.498Z,9.6
2023-02-21T13:03:45.851Z,9.6
2023-02-21T13:04:48.241Z,9.7
2023-02-21T13:05:52.709Z,9.8
2023-02-21T13:06:56.027Z,10
2023-02-21T13:07:57.605Z,10
2023-02-21T13:08:59.969Z,9.9
2023-02-21T13:10:02.648Z,10
2023-02-21T13:11:05.043Z,10.1
2023-02-21T13:12:07.098Z,10.2
2023-02-21T13:13:09.878Z,10.2
2023-02-21T13:14:11.630Z,10.1
2023-02-21T13:15:13.589Z,10
2023-02-21T13:16:15.660Z,10
2023-02-21T13:17:17.318Z,10
2023-02-21T13:18:19.575Z,10.1
2023-02-21T13:19:22.417Z,10
2023-02-21T13:20:25.740Z,9.9
2023-02-21T13:21:27.078Z,9.8
2023-02-21T13:22:29.581Z,9.7
2023-02-21T13:23:31.755Z,9.7
2023-02-21T13:24:35.053Z,9.6
2023-02-21T13:25:36.668Z,9.5
2023-02-21T13:26:37.967Z,9.6
2023-02-21T13:27:40.642Z,9.7
2023-02-21T13:28:42.243Z,9.7
2023-02-21T13:29:46.447Z,9.7
2023-02-21T13:30:48.872Z,9.8
2023-02-21T13:31:51.793Z,9.8
2023-02-21T13:32:54.679Z,9.7
2023-02-21T13:33:56.038Z,9.7
2023-02-21T13:34:58.590Z,9.8
2023-02-21T13:36:00.186Z,9.7
2023-02-21T13:37:03.152Z,9.8
2023-02-21T13:38:05.858Z,9.8
2023-02-21T13:39:09.180Z,9.8
2023-02-21T13:40:10.680Z,9.9
2023-02-21T13:41:11.633Z,9.9
2023-02-21T13:42:12.601Z,9.9
2023-02-21T13:43:13.621Z,9.8
2023-02-21T13:44:14.591Z,9.8
2023-02-21T13:45:15.650Z,9.8
2023-02-21T13:46:16.748Z,9.8
2023-02-21T13:47:17.961Z,9.8
2023-02-21T13:48:21.342Z,9.8
2023-02-21T13:49:22.808Z,9.9
2023-02-21T13:50:24.658Z,10
2023-02-21T13:51:25.722Z,10
2023-02-21T13:52:27.781Z,9.9
2023-02-21T13:53:31.601Z,10.1
2023-02-21T13:54:33.592Z,9.8
2023-02-21T13:55:36.671Z,9.8
2023-02-21T13:56:40.415Z,9.9
2023-02-21T13:57:43.682Z,10.1
2023-02-21T13:58:48.004Z,10.3
2023-02-21T13:59:50.291Z,10.5
2023-02-21T14:00:52.907Z,10.5
2023-02-21T14:01:56.142Z,10.5
2023-02-21T14:02:58.002Z,10.4
2023-02-21T14:03:59.863Z,10.5
2023-02-21T14:05:01.736Z,10.7
2023-02-21T14:06:04.231Z,10.7
2023-02-21T14:07:07.099Z,10.6
2023-02-21T14:08:10.179Z,10.4
2023-02-21T14:09:13.143Z,10.3
2023-02-21T14:10:16.327Z,10.3
2023-02-21T14:11:19.682Z,10.2
2023-02-21T14:12:21.644Z,10.2
2023-02-21T14:13:22.778Z,10.1
2023-02-21T14:14:24.627Z,10.1
2023-02-21T14:15:25.640Z,10.2
2023-02-21T14:16:26.661Z,10.4
2023-02-21T14:17:28.339Z,10.6
2023-02-21T14:18:32.176Z,10.4
2023-02-21T14:19:36.981Z,10.2
2023-02-21T14:20:44.581Z,10.1
2023-02-21T14:21:48.358Z,10.2
2023-02-21T14:22:52.375Z,10
2023-02-21T14:23:55.102Z,9.8
2023-02-21T14:24:58.680Z,9.7